sensor_id;sensor_type;location;lat;lon;timestamp;P1;durP1;ratioP1;P2;durP2;ratioP2
35223;SDS011;21367;51.930;8.112;2023-05-03T00:04:07;9.43;;;2.55;;
35223;SDS011;21367;51.930;8.112;2023-05-03T00:09:10;6.85;;;1.92;;
35223;SDS011;21367;51.930;8.112;2023-05-03T00:14:18;9.60;;;2.30;;
35223;SDS011;21367;51.930;8.112;2023-05-03T00:19:22;4.32;;;2.08;;
35223;SDS011;21367;51.930;8.112;2023-05-03T00:24:26;6.65;;;2.53;;
35223;SDS011;21367;51.930;8.112;2023-05-03T00:29:32;10.52;;;2.53;;
35223;SDS011;21367;51.930;8.112;2023-05-03T00:34:36;10.80;;;2.10;;
35223;SDS011;21367;51.930;8.112;2023-05-03T00:39:40;10.07;;;2.50;;
35223;SDS011;21367;51.930;8.112;2023-05-03T00:44:47;8.15;;;2.85;;
35223;SDS011;21367;51.930;8.112;2023-05-03T00:54:54;7.75;;;2.92;;
35223;SDS011;21367;51.930;8.112;2023-05-03T01:00:02;6.00;;;2.40;;
35223;SDS011;21367;51.930;8.112;2023-05-03T01:05:08;7.63;;;2.80;;
35223;SDS011;21367;51.930;8.112;2023-05-03T01:10:16;10.57;;;3.17;;
35223;SDS011;21367;51.930;8.112;2023-05-03T01:15:33;7.43;;;2.47;;
35223;SDS011;21367;51.930;8.112;2023-05-03T01:20:47;6.00;;;2.67;;
35223;SDS011;21367;51.930;8.112;2023-05-03T01:25:55;7.88;;;2.88;;
35223;SDS011;21367;51.930;8.112;2023-05-03T01:30:59;6.05;;;2.60;;
35223;SDS011;21367;51.930;8.112;2023-05-03T01:36:03;10.73;;;2.85;;
35223;SDS011;21367;51.930;8.112;2023-05-03T01:41:17;10.30;;;2.92;;
35223;SDS011;21367;51.930;8.112;2023-05-03T01:46:23;7.05;;;2.78;;
35223;SDS011;21367;51.930;8.112;2023-05-03T01:51:27;10.75;;;4.03;;
35223;SDS011;21367;51.930;8.112;2023-05-03T01:56:34;10.98;;;3.45;;
35223;SDS011;21367;51.930;8.112;2023-05-03T02:01:38;13.88;;;3.28;;
35223;SDS011;21367;51.930;8.112;2023-05-03T02:06:42;7.78;;;3.15;;
35223;SDS011;21367;51.930;8.112;2023-05-03T02:11:49;9.80;;;3.33;;
35223;SDS011;21367;51.930;8.112;2023-05-03T02:16:52;7.72;;;2.83;;
35223;SDS011;21367;51.930;8.112;2023-05-03T02:21:57;12.50;;;3.05;;
35223;SDS011;21367;51.930;8.112;2023-05-03T02:27:04;9.43;;;3.63;;
35223;SDS011;21367;51.930;8.112;2023-05-03T02:32:11;5.40;;;2.78;;
35223;SDS011;21367;51.930;8.112;2023-05-03T02:37:16;11.25;;;3.13;;
35223;SDS011;21367;51.930;8.112;2023-05-03T02:42:23;9.77;;;3.10;;
35223;SDS011;21367;51.930;8.112;2023-05-03T02:47:28;10.07;;;3.70;;
35223;SDS011;21367;51.930;8.112;2023-05-03T02:52:32;12.57;;;3.38;;
35223;SDS011;21367;51.930;8.112;2023-05-03T02:57:39;8.90;;;3.50;;
35223;SDS011;21367;51.930;8.112;2023-05-03T03:02:44;7.90;;;3.35;;
35223;SDS011;21367;51.930;8.112;2023-05-03T03:07:48;8.02;;;3.33;;
35223;SDS011;21367;51.930;8.112;2023-05-03T03:12:55;6.15;;;3.20;;
35223;SDS011;21367;51.930;8.112;2023-05-03T03:18:06;9.75;;;3.65;;
35223;SDS011;21367;51.930;8.112;2023-05-03T03:23:10;11.95;;;3.83;;
35223;SDS011;21367;51.930;8.112;2023-05-03T03:28:18;9.00;;;3.85;;
35223;SDS011;21367;51.930;8.112;2023-05-03T03:33:23;13.35;;;4.13;;
35223;SDS011;21367;51.930;8.112;2023-05-03T03:38:33;14.25;;;3.92;;
35223;SDS011;21367;51.930;8.112;2023-05-03T03:43:44;7.82;;;3.50;;
35223;SDS011;21367;51.930;8.112;2023-05-03T03:48:52;8.30;;;3.25;;
35223;SDS011;21367;51.930;8.112;2023-05-03T03:53:58;15.05;;;3.40;;
35223;SDS011;21367;51.930;8.112;2023-05-03T03:59:10;19.38;;;3.75;;
35223;SDS011;21367;51.930;8.112;2023-05-03T04:04:14;10.02;;;3.47;;
35223;SDS011;21367;51.930;8.112;2023-05-03T04:09:19;9.18;;;3.00;;
35223;SDS011;21367;51.930;8.112;2023-05-03T04:14:25;8.52;;;3.33;;
35223;SDS011;21367;51.930;8.112;2023-05-03T04:19:29;10.35;;;4.50;;
35223;SDS011;21367;51.930;8.112;2023-05-03T04:24:33;15.70;;;4.80;;
35223;SDS011;21367;51.930;8.112;2023-05-03T04:29:43;18.90;;;8.20;;
35223;SDS011;21367;51.930;8.112;2023-05-03T04:34:48;22.52;;;7.70;;
35223;SDS011;21367;51.930;8.112;2023-05-03T04:39:55;12.02;;;4.15;;
35223;SDS011;21367;51.930;8.112;2023-05-03T04:45:02;7.85;;;3.65;;
35223;SDS011;21367;51.930;8.112;2023-05-03T04:50:09;12.85;;;3.78;;
35223;SDS011;21367;51.930;8.112;2023-05-03T04:55:17;7.20;;;3.28;;
35223;SDS011;21367;51.930;8.112;2023-05-03T05:00:24;17.23;;;4.80;;
35223;SDS011;21367;51.930;8.112;2023-05-03T05:05:34;11.32;;;4.03;;
35223;SDS011;21367;51.930;8.112;2023-05-03T05:10:39;10.45;;;4.60;;
35223;SDS011;21367;51.930;8.112;2023-05-03T05:15:51;11.15;;;4.97;;
35223;SDS011;21367;51.930;8.112;2023-05-03T05:20:55;21.38;;;4.70;;
35223;SDS011;21367;51.930;8.112;2023-05-03T05:25:59;12.50;;;5.53;;
35223;SDS011;21367;51.930;8.112;2023-05-03T05:31:08;13.18;;;4.90;;
35223;SDS011;21367;51.930;8.112;2023-05-03T05:36:12;11.75;;;4.90;;
35223;SDS011;21367;51.930;8.112;2023-05-03T05:41:18;17.10;;;5.22;;
35223;SDS011;21367;51.930;8.112;2023-05-03T05:46:24;21.30;;;5.15;;
35223;SDS011;21367;51.930;8.112;2023-05-03T05:51:28;23.05;;;5.47;;
35223;SDS011;21367;51.930;8.112;2023-05-03T05:56:33;14.77;;;5.90;;
35223;SDS011;21367;51.930;8.112;2023-05-03T06:01:40;17.35;;;6.35;;
35223;SDS011;21367;51.930;8.112;2023-05-03T06:06:48;14.43;;;4.63;;
35223;SDS011;21367;51.930;8.112;2023-05-03T06:11:52;11.20;;;4.40;;
35223;SDS011;21367;51.930;8.112;2023-05-03T06:17:00;11.35;;;3.83;;
35223;SDS011;21367;51.930;8.112;2023-05-03T06:22:05;12.98;;;3.80;;
35223;SDS011;21367;51.930;8.112;2023-05-03T06:27:09;13.67;;;4.23;;
35223;SDS011;21367;51.930;8.112;2023-05-03T06:32:17;12.18;;;3.70;;
35223;SDS011;21367;51.930;8.112;2023-05-03T06:37:21;16.75;;;4.45;;
35223;SDS011;21367;51.930;8.112;2023-05-03T06:42:25;11.48;;;3.88;;
35223;SDS011;21367;51.930;8.112;2023-05-03T06:48:04;14.98;;;4.43;;
35223;SDS011;21367;51.930;8.112;2023-05-03T06:53:09;8.98;;;3.28;;
35223;SDS011;21367;51.930;8.112;2023-05-03T06:58:12;17.48;;;4.15;;
35223;SDS011;21367;51.930;8.112;2023-05-03T07:03:19;21.30;;;4.38;;
35223;SDS011;21367;51.930;8.112;2023-05-03T07:08:23;21.67;;;4.13;;
35223;SDS011;21367;51.930;8.112;2023-05-03T07:13:27;23.98;;;4.68;;
35223;SDS011;21367;51.930;8.112;2023-05-03T07:18:34;8.40;;;3.28;;
35223;SDS011;21367;51.930;8.112;2023-05-03T07:28:41;16.00;;;4.30;;
35223;SDS011;21367;51.930;8.112;2023-05-03T07:33:47;16.05;;;3.10;;
35223;SDS011;21367;51.930;8.112;2023-05-03T07:38:51;6.65;;;3.10;;
35223;SDS011;21367;51.930;8.112;2023-05-03T07:43:55;14.02;;;3.35;;
35223;SDS011;21367;51.930;8.112;2023-05-03T07:49:02;9.68;;;3.10;;
35223;SDS011;21367;51.930;8.112;2023-05-03T07:54:07;13.85;;;2.90;;
35223;SDS011;21367;51.930;8.112;2023-05-03T07:59:11;12.18;;;3.17;;
35223;SDS011;21367;51.930;8.112;2023-05-03T08:04:17;16.73;;;3.08;;
35223;SDS011;21367;51.930;8.112;2023-05-03T08:14:25;12.00;;;2.60;;
35223;SDS011;21367;51.930;8.112;2023-05-03T08:19:32;10.50;;;2.72;;
35223;SDS011;21367;51.930;8.112;2023-05-03T08:24:35;15.63;;;2.80;;
35223;SDS011;21367;51.930;8.112;2023-05-03T08:29:39;5.28;;;2.67;;
35223;SDS011;21367;51.930;8.112;2023-05-03T08:34:46;10.52;;;2.50;;
35223;SDS011;21367;51.930;8.112;2023-05-03T08:44:53;13.48;;;3.25;;
35223;SDS011;21367;51.930;8.112;2023-05-03T08:50:00;12.93;;;3.03;;
35223;SDS011;21367;51.930;8.112;2023-05-03T08:55:06;13.48;;;3.03;;
35223;SDS011;21367;51.930;8.112;2023-05-03T09:00:11;16.67;;;3.45;;
35223;SDS011;21367;51.930;8.112;2023-05-03T09:05:34;9.25;;;2.38;;
35223;SDS011;21367;51.930;8.112;2023-05-03T09:10:40;7.35;;;2.42;;
35223;SDS011;21367;51.930;8.112;2023-05-03T09:15:51;12.68;;;2.55;;
35223;SDS011;21367;51.930;8.112;2023-05-03T09:21:00;10.25;;;2.65;;
35223;SDS011;21367;51.930;8.112;2023-05-03T09:26:04;9.93;;;2.75;;
35223;SDS011;21367;51.930;8.112;2023-05-03T09:31:07;10.40;;;2.38;;
35223;SDS011;21367;51.930;8.112;2023-05-03T09:36:14;8.52;;;2.60;;
35223;SDS011;21367;51.930;8.112;2023-05-03T09:46:28;11.15;;;2.88;;
35223;SDS011;21367;51.930;8.112;2023-05-03T09:51:35;11.88;;;2.75;;
35223;SDS011;21367;51.930;8.112;2023-05-03T09:56:41;15.70;;;3.78;;
35223;SDS011;21367;51.930;8.112;2023-05-03T10:01:49;15.27;;;2.88;;
35223;SDS011;21367;51.930;8.112;2023-05-03T10:07:00;13.60;;;3.20;;
35223;SDS011;21367;51.930;8.112;2023-05-03T10:12:10;14.48;;;2.55;;
35223;SDS011;21367;51.930;8.112;2023-05-03T10:17:19;9.27;;;3.10;;
35223;SDS011;21367;51.930;8.112;2023-05-03T10:22:29;15.18;;;2.92;;
35223;SDS011;21367;51.930;8.112;2023-05-03T10:32:43;9.48;;;2.88;;
35223;SDS011;21367;51.930;8.112;2023-05-03T10:37:50;16.63;;;3.00;;
35223;SDS011;21367;51.930;8.112;2023-05-03T10:42:56;9.05;;;2.97;;
35223;SDS011;21367;51.930;8.112;2023-05-03T10:58:49;8.23;;;2.85;;
35223;SDS011;21367;51.930;8.112;2023-05-03T11:03:56;12.90;;;2.92;;
35223;SDS011;21367;51.930;8.112;2023-05-03T11:09:11;10.27;;;3.03;;
35223;SDS011;21367;51.930;8.112;2023-05-03T11:14:15;9.27;;;2.80;;
35223;SDS011;21367;51.930;8.112;2023-05-03T11:19:19;15.77;;;3.65;;
35223;SDS011;21367;51.930;8.112;2023-05-03T11:24:26;10.10;;;3.10;;
35223;SDS011;21367;51.930;8.112;2023-05-03T11:29:30;9.73;;;3.33;;
35223;SDS011;21367;51.930;8.112;2023-05-03T11:34:33;10.20;;;3.28;;
35223;SDS011;21367;51.930;8.112;2023-05-03T11:39:41;17.50;;;3.63;;
35223;SDS011;21367;51.930;8.112;2023-05-03T11:44:47;8.23;;;3.20;;
35223;SDS011;21367;51.930;8.112;2023-05-03T11:49:51;9.98;;;2.92;;
35223;SDS011;21367;51.930;8.112;2023-05-03T11:54:58;9.73;;;2.80;;
35223;SDS011;21367;51.930;8.112;2023-05-03T12:00:10;10.75;;;3.38;;
35223;SDS011;21367;51.930;8.112;2023-05-03T12:05:17;11.68;;;3.10;;
35223;SDS011;21367;51.930;8.112;2023-05-03T12:10:24;10.18;;;3.25;;
35223;SDS011;21367;51.930;8.112;2023-05-03T12:15:34;11.45;;;3.55;;
35223;SDS011;21367;51.930;8.112;2023-05-03T12:20:40;11.77;;;3.10;;
35223;SDS011;21367;51.930;8.112;2023-05-03T12:25:46;10.20;;;3.40;;
35223;SDS011;21367;51.930;8.112;2023-05-03T12:30:52;14.82;;;3.90;;
35223;SDS011;21367;51.930;8.112;2023-05-03T12:35:56;12.65;;;3.70;;
35223;SDS011;21367;51.930;8.112;2023-05-03T12:41:04;7.50;;;2.70;;
35223;SDS011;21367;51.930;8.112;2023-05-03T12:46:08;15.05;;;3.35;;
35223;SDS011;21367;51.930;8.112;2023-05-03T12:51:12;16.17;;;3.40;;
35223;SDS011;21367;51.930;8.112;2023-05-03T12:56:19;10.10;;;3.13;;
35223;SDS011;21367;51.930;8.112;2023-05-03T13:01:23;33.40;;;3.80;;
35223;SDS011;21367;51.930;8.112;2023-05-03T13:06:28;10.73;;;3.47;;
35223;SDS011;21367;51.930;8.112;2023-05-03T13:11:34;7.60;;;2.92;;
35223;SDS011;21367;51.930;8.112;2023-05-03T13:16:38;11.07;;;3.72;;
35223;SDS011;21367;51.930;8.112;2023-05-03T13:21:45;8.70;;;3.05;;
35223;SDS011;21367;51.930;8.112;2023-05-03T13:26:54;10.48;;;3.70;;
35223;SDS011;21367;51.930;8.112;2023-05-03T13:31:58;11.75;;;3.63;;
35223;SDS011;21367;51.930;8.112;2023-05-03T13:37:02;13.02;;;3.42;;
35223;SDS011;21367;51.930;8.112;2023-05-03T13:42:09;22.15;;;8.35;;
35223;SDS011;21367;51.930;8.112;2023-05-03T13:47:13;8.57;;;3.42;;
35223;SDS011;21367;51.930;8.112;2023-05-03T13:52:17;13.23;;;3.38;;
35223;SDS011;21367;51.930;8.112;2023-05-03T13:57:23;7.85;;;3.28;;
35223;SDS011;21367;51.930;8.112;2023-05-03T14:02:28;10.45;;;3.10;;
35223;SDS011;21367;51.930;8.112;2023-05-03T14:07:34;13.32;;;4.45;;
35223;SDS011;21367;51.930;8.112;2023-05-03T14:12:40;9.95;;;4.22;;
35223;SDS011;21367;51.930;8.112;2023-05-03T14:17:45;12.63;;;4.05;;
35223;SDS011;21367;51.930;8.112;2023-05-03T14:22:49;10.05;;;3.45;;
35223;SDS011;21367;51.930;8.112;2023-05-03T14:27:55;10.68;;;4.15;;
35223;SDS011;21367;51.930;8.112;2023-05-03T14:32:59;16.83;;;3.80;;
35223;SDS011;21367;51.930;8.112;2023-05-03T14:38:03;9.85;;;3.08;;
35223;SDS011;21367;51.930;8.112;2023-05-03T14:43:09;10.93;;;3.97;;
35223;SDS011;21367;51.930;8.112;2023-05-03T14:48:14;16.45;;;3.88;;
35223;SDS011;21367;51.930;8.112;2023-05-03T14:53:18;10.52;;;2.97;;
35223;SDS011;21367;51.930;8.112;2023-05-03T14:58:25;9.82;;;3.90;;
35223;SDS011;21367;51.930;8.112;2023-05-03T15:03:29;15.60;;;3.60;;
35223;SDS011;21367;51.930;8.112;2023-05-03T15:08:33;11.60;;;3.60;;
35223;SDS011;21367;51.930;8.112;2023-05-03T15:13:40;11.15;;;3.83;;
35223;SDS011;21367;51.930;8.112;2023-05-03T15:18:44;13.20;;;3.83;;
35223;SDS011;21367;51.930;8.112;2023-05-03T15:23:49;14.50;;;3.88;;
35223;SDS011;21367;51.930;8.112;2023-05-03T15:28:55;14.40;;;3.85;;
35223;SDS011;21367;51.930;8.112;2023-05-03T15:33:59;13.25;;;3.95;;
35223;SDS011;21367;51.930;8.112;2023-05-03T15:39:04;10.65;;;3.90;;
35223;SDS011;21367;51.930;8.112;2023-05-03T15:44:11;19.83;;;3.83;;
35223;SDS011;21367;51.930;8.112;2023-05-03T15:49:15;11.43;;;3.88;;
35223;SDS011;21367;51.930;8.112;2023-05-03T15:54:19;9.82;;;3.47;;
35223;SDS011;21367;51.930;8.112;2023-05-03T15:59:25;11.75;;;2.95;;
35223;SDS011;21367;51.930;8.112;2023-05-03T16:04:29;10.68;;;3.25;;
35223;SDS011;21367;51.930;8.112;2023-05-03T16:09:33;16.35;;;4.20;;
35223;SDS011;21367;51.930;8.112;2023-05-03T16:14:40;11.52;;;3.60;;
35223;SDS011;21367;51.930;8.112;2023-05-03T16:19:43;8.98;;;3.42;;
35223;SDS011;21367;51.930;8.112;2023-05-03T16:24:47;12.00;;;3.40;;
35223;SDS011;21367;51.930;8.112;2023-05-03T16:29:55;18.33;;;3.33;;
35223;SDS011;21367;51.930;8.112;2023-05-03T16:35:01;11.65;;;3.40;;
35223;SDS011;21367;51.930;8.112;2023-05-03T16:40:05;16.27;;;3.45;;
35223;SDS011;21367;51.930;8.112;2023-05-03T16:45:13;9.33;;;3.30;;
35223;SDS011;21367;51.930;8.112;2023-05-03T16:50:19;11.00;;;3.25;;
35223;SDS011;21367;51.930;8.112;2023-05-03T16:55:22;7.85;;;3.45;;
35223;SDS011;21367;51.930;8.112;2023-05-03T17:00:29;9.15;;;2.78;;
35223;SDS011;21367;51.930;8.112;2023-05-03T17:05:33;13.32;;;2.92;;
35223;SDS011;21367;51.930;8.112;2023-05-03T17:10:36;22.05;;;3.33;;
35223;SDS011;21367;51.930;8.112;2023-05-03T17:15:43;9.85;;;3.30;;
35223;SDS011;21367;51.930;8.112;2023-05-03T17:20:47;10.98;;;3.38;;
35223;SDS011;21367;51.930;8.112;2023-05-03T17:25:55;16.00;;;3.35;;
35223;SDS011;21367;51.930;8.112;2023-05-03T17:31:02;11.75;;;3.88;;
35223;SDS011;21367;51.930;8.112;2023-05-03T17:36:06;13.93;;;3.42;;
35223;SDS011;21367;51.930;8.112;2023-05-03T17:41:10;11.23;;;2.97;;
35223;SDS011;21367;51.930;8.112;2023-05-03T17:46:16;10.82;;;3.53;;
35223;SDS011;21367;51.930;8.112;2023-05-03T17:51:20;8.20;;;2.70;;
35223;SDS011;21367;51.930;8.112;2023-05-03T17:56:24;15.10;;;2.95;;
35223;SDS011;21367;51.930;8.112;2023-05-03T18:01:30;11.82;;;2.90;;
35223;SDS011;21367;51.930;8.112;2023-05-03T18:06:34;13.07;;;2.92;;
35223;SDS011;21367;51.930;8.112;2023-05-03T18:11:38;8.25;;;2.70;;
35223;SDS011;21367;51.930;8.112;2023-05-03T18:16:47;9.80;;;2.75;;
35223;SDS011;21367;51.930;8.112;2023-05-03T18:21:51;15.55;;;3.03;;
35223;SDS011;21367;51.930;8.112;2023-05-03T18:26:55;13.13;;;3.15;;
35223;SDS011;21367;51.930;8.112;2023-05-03T18:32:01;11.18;;;3.22;;
35223;SDS011;21367;51.930;8.112;2023-05-03T18:37:05;11.63;;;3.08;;
35223;SDS011;21367;51.930;8.112;2023-05-03T18:42:09;12.23;;;3.08;;
35223;SDS011;21367;51.930;8.112;2023-05-03T18:47:17;14.77;;;3.30;;
35223;SDS011;21367;51.930;8.112;2023-05-03T18:57:25;8.70;;;2.47;;
35223;SDS011;21367;51.930;8.112;2023-05-03T19:02:32;7.95;;;2.67;;
35223;SDS011;21367;51.930;8.112;2023-05-03T19:12:45;11.98;;;2.97;;
35223;SDS011;21367;51.930;8.112;2023-05-03T19:17:55;13.95;;;3.40;;
35223;SDS011;21367;51.930;8.112;2023-05-03T19:22:59;14.70;;;3.22;;
35223;SDS011;21367;51.930;8.112;2023-05-03T19:28:03;17.15;;;3.17;;
35223;SDS011;21367;51.930;8.112;2023-05-03T19:33:10;8.63;;;2.60;;
35223;SDS011;21367;51.930;8.112;2023-05-03T19:38:14;8.00;;;2.40;;
35223;SDS011;21367;51.930;8.112;2023-05-03T19:43:24;11.85;;;3.10;;
35223;SDS011;21367;51.930;8.112;2023-05-03T19:53:35;9.95;;;2.55;;
35223;SDS011;21367;51.930;8.112;2023-05-03T19:58:39;10.73;;;2.53;;
35223;SDS011;21367;51.930;8.112;2023-05-03T20:03:46;13.27;;;3.72;;
35223;SDS011;21367;51.930;8.112;2023-05-03T20:08:52;8.52;;;2.60;;
35223;SDS011;21367;51.930;8.112;2023-05-03T20:13:57;11.13;;;3.30;;
35223;SDS011;21367;51.930;8.112;2023-05-03T20:19:04;7.00;;;2.80;;
35223;SDS011;21367;51.930;8.112;2023-05-03T20:24:09;10.63;;;3.33;;
35223;SDS011;21367;51.930;8.112;2023-05-03T20:29:14;10.52;;;3.17;;
35223;SDS011;21367;51.930;8.112;2023-05-03T20:34:20;9.68;;;3.30;;
35223;SDS011;21367;51.930;8.112;2023-05-03T20:44:28;6.40;;;2.90;;
35223;SDS011;21367;51.930;8.112;2023-05-03T20:49:34;10.70;;;3.42;;
35223;SDS011;21367;51.930;8.112;2023-05-03T20:54:39;9.93;;;3.15;;
35223;SDS011;21367;51.930;8.112;2023-05-03T20:59:44;8.18;;;3.03;;
35223;SDS011;21367;51.930;8.112;2023-05-03T21:04:51;10.07;;;3.28;;
35223;SDS011;21367;51.930;8.112;2023-05-03T21:09:55;11.25;;;3.58;;
35223;SDS011;21367;51.930;8.112;2023-05-03T21:14:58;12.52;;;3.50;;
35223;SDS011;21367;51.930;8.112;2023-05-03T21:20:06;12.70;;;4.00;;
35223;SDS011;21367;51.930;8.112;2023-05-03T21:25:11;11.73;;;3.67;;
35223;SDS011;21367;51.930;8.112;2023-05-03T21:30:15;15.35;;;3.55;;
35223;SDS011;21367;51.930;8.112;2023-05-03T21:35:23;17.60;;;3.97;;
35223;SDS011;21367;51.930;8.112;2023-05-03T21:40:27;17.85;;;4.60;;
35223;SDS011;21367;51.930;8.112;2023-05-03T21:45:30;16.48;;;5.93;;
35223;SDS011;21367;51.930;8.112;2023-05-03T21:50:38;13.23;;;5.28;;
35223;SDS011;21367;51.930;8.112;2023-05-03T21:55:43;11.15;;;4.18;;
35223;SDS011;21367;51.930;8.112;2023-05-03T22:00:47;14.55;;;4.65;;
35223;SDS011;21367;51.930;8.112;2023-05-03T22:05:54;8.45;;;4.22;;
35223;SDS011;21367;51.930;8.112;2023-05-03T22:10:58;11.57;;;4.22;;
35223;SDS011;21367;51.930;8.112;2023-05-03T22:16:03;7.60;;;3.83;;
35223;SDS011;21367;51.930;8.112;2023-05-03T22:21:11;14.48;;;3.55;;
35223;SDS011;21367;51.930;8.112;2023-05-03T22:26:15;15.90;;;3.40;;
35223;SDS011;21367;51.930;8.112;2023-05-03T22:31:18;13.70;;;3.90;;
35223;SDS011;21367;51.930;8.112;2023-05-03T22:36:25;11.18;;;3.45;;
35223;SDS011;21367;51.930;8.112;2023-05-03T22:41:29;10.23;;;3.33;;
35223;SDS011;21367;51.930;8.112;2023-05-03T22:46:33;11.65;;;3.97;;
35223;SDS011;21367;51.930;8.112;2023-05-03T22:51:39;14.52;;;3.80;;
35223;SDS011;21367;51.930;8.112;2023-05-03T23:01:47;14.10;;;4.13;;
35223;SDS011;21367;51.930;8.112;2023-05-03T23:06:55;7.43;;;3.47;;
35223;SDS011;21367;51.930;8.112;2023-05-03T23:12:00;16.83;;;3.92;;
35223;SDS011;21367;51.930;8.112;2023-05-03T23:17:03;9.10;;;3.75;;
35223;SDS011;21367;51.930;8.112;2023-05-03T23:22:10;7.70;;;3.55;;
35223;SDS011;21367;51.930;8.112;2023-05-03T23:27:14;20.27;;;4.05;;
35223;SDS011;21367;51.930;8.112;2023-05-03T23:32:18;10.77;;;4.03;;
35223;SDS011;21367;51.930;8.112;2023-05-03T23:37:25;12.50;;;3.90;;
35223;SDS011;21367;51.930;8.112;2023-05-03T23:42:29;9.85;;;4.10;;
35223;SDS011;21367;51.930;8.112;2023-05-03T23:47:32;11.20;;;3.85;;
35223;SDS011;21367;51.930;8.112;2023-05-03T23:52:40;8.85;;;3.45;;
35223;SDS011;21367;51.930;8.112;2023-05-03T23:57:44;7.47;;;4.00;;
